createdAt,value
2018-03-24T00:00:48.052Z,54.20
2018-03-24T00:03:15.514Z,54.50
2018-03-24T00:05:44.473Z,54.10
2018-03-24T00:08:11.934Z,54.10
2018-03-24T00:10:39.399Z,54.40
2018-03-24T00:13:07.634Z,54.80
2018-03-24T00:15:35.090Z,54.80
2018-03-24T00:18:03.323Z,54.70
2018-03-24T00:20:30.822Z,54.80
2018-03-24T00:22:59.060Z,54.40
2018-03-24T00:25:27.292Z,55.00
2018-03-24T00:27:54.734Z,54.30
2018-03-24T00:30:22.213Z,54.00
2018-03-24T00:32:49.713Z,54.00
2018-03-24T00:35:17.445Z,54.90
2018-03-24T00:37:44.917Z,55.20
2018-03-24T00:40:12.390Z,54.80
2018-03-24T00:42:39.850Z,54.60
2018-03-24T00:45:07.326Z,54.70
2018-03-24T00:47:34.810Z,55.50
2018-03-24T00:50:02.271Z,55.70
2018-03-24T00:52:29.750Z,55.70
2018-03-24T00:54:57.187Z,55.60
2018-03-24T00:57:24.659Z,55.70
2018-03-24T00:59:52.114Z,55.40
2018-03-24T01:02:19.573Z,55.40
2018-03-24T01:04:47.034Z,55.80
2018-03-24T01:07:14.495Z,54.90
2018-03-24T01:09:41.953Z,55.40
2018-03-24T01:12:10.168Z,56.00
2018-03-24T01:14:37.635Z,55.90
2018-03-24T01:17:05.854Z,55.00
2018-03-24T01:19:33.342Z,55.00
2018-03-24T01:22:00.798Z,55.10
2018-03-24T01:24:28.253Z,54.90
2018-03-24T01:26:55.730Z,55.20
2018-03-24T01:29:23.221Z,54.90
2018-03-24T01:31:50.682Z,54.80
2018-03-24T01:34:18.918Z,55.20
2018-03-24T01:36:46.387Z,55.20
2018-03-24T01:39:13.841Z,55.60
2018-03-24T01:41:41.321Z,56.10
2018-03-24T01:44:09.550Z,56.40
2018-03-24T01:46:37.006Z,56.40
2018-03-24T01:49:04.470Z,56.50
2018-03-24T01:51:31.923Z,56.40
2018-03-24T01:53:59.390Z,56.40
2018-03-24T01:56:26.854Z,56.20
2018-03-24T01:58:54.317Z,56.00
2018-03-24T02:01:21.794Z,56.30
2018-03-24T02:03:49.249Z,56.30
2018-03-24T02:06:17.490Z,56.40
2018-03-24T02:08:45.711Z,56.30
2018-03-24T02:11:13.190Z,56.00
2018-03-24T02:13:40.685Z,55.70
2018-03-24T02:16:08.133Z,55.70
2018-03-24T02:18:35.590Z,55.60
2018-03-24T02:21:14.777Z,55.30
2018-03-24T02:23:42.238Z,55.20
2018-03-24T02:26:09.702Z,55.10
2018-03-24T02:28:37.953Z,55.80
2018-03-24T02:31:06.166Z,55.70
2018-03-24T02:33:33.639Z,55.70
2018-03-24T02:36:01.082Z,55.70
2018-03-24T02:38:28.559Z,55.90
2018-03-24T02:40:56.023Z,55.80
2018-03-24T02:43:24.244Z,55.40
2018-03-24T02:45:51.812Z,55.40
2018-03-24T02:48:19.273Z,54.80
2018-03-24T02:50:46.716Z,54.80
2018-03-24T02:53:14.178Z,54.80
2018-03-24T02:55:41.629Z,55.20
2018-03-24T02:58:09.865Z,55.70
2018-03-24T03:00:38.154Z,55.50
2018-03-24T03:03:07.125Z,55.30
2018-03-24T03:05:34.586Z,55.30
2018-03-24T03:08:02.810Z,55.30
2018-03-24T03:10:30.264Z,55.20
2018-03-24T03:12:57.721Z,54.90
2018-03-24T03:15:25.173Z,55.20
2018-03-24T03:17:53.394Z,55.20
2018-03-24T03:20:20.857Z,55.20
2018-03-24T03:22:48.341Z,55.40
2018-03-24T03:25:15.798Z,55.00
2018-03-24T03:27:43.258Z,54.90
2018-03-24T03:33:28.833Z,54.90
2018-03-24T03:35:56.291Z,54.80
2018-03-24T03:38:23.769Z,54.60
2018-03-24T03:40:51.230Z,55.30
2018-03-24T03:43:18.701Z,55.60
2018-03-24T03:45:46.920Z,55.00
2018-03-24T03:48:14.374Z,54.80
2018-03-24T03:50:42.605Z,55.70
2018-03-24T03:53:10.822Z,55.60
2018-03-24T03:55:38.302Z,55.40
2018-03-24T03:58:05.762Z,55.90
2018-03-24T04:00:33.221Z,55.80
2018-03-24T04:03:00.678Z,55.60
2018-03-24T04:05:28.133Z,55.40
2018-03-24T04:07:56.357Z,55.60
2018-03-24T04:10:24.649Z,56.20
2018-03-24T04:12:52.097Z,56.20
2018-03-24T04:15:20.334Z,55.80
2018-03-24T04:17:47.793Z,55.80
2018-03-24T04:20:15.265Z,55.20
2018-03-24T04:22:43.498Z,55.90
2018-03-24T04:25:10.965Z,55.80
2018-03-24T04:27:38.422Z,56.20
2018-03-24T04:30:05.890Z,55.80
2018-03-24T04:32:33.361Z,55.80
2018-03-24T04:35:00.820Z,56.20
2018-03-24T04:37:28.291Z,56.70
2018-03-24T04:39:56.529Z,55.70
2018-03-24T04:42:23.990Z,55.70
2018-03-24T04:44:52.222Z,55.40
2018-03-24T04:47:19.674Z,55.50
2018-03-24T04:49:47.128Z,55.10
2018-03-24T04:52:15.362Z,54.90
2018-03-24T04:54:42.822Z,54.90
2018-03-24T04:57:10.285Z,55.10
2018-03-24T04:59:37.741Z,55.30
2018-03-24T05:02:05.205Z,56.00
2018-03-24T05:04:34.181Z,56.40
2018-03-24T05:07:01.673Z,56.40
2018-03-24T05:09:29.900Z,56.60
2018-03-24T05:11:57.388Z,56.40
2018-03-24T05:14:24.871Z,56.80
2018-03-24T05:16:53.096Z,56.60
2018-03-24T05:19:20.553Z,56.60
2018-03-24T05:21:48.022Z,55.90
2018-03-24T05:24:15.478Z,55.60
2018-03-24T05:26:42.938Z,55.90
2018-03-24T05:29:10.397Z,55.20
2018-03-24T05:31:38.617Z,56.60
2018-03-24T05:34:06.078Z,56.50
2018-03-24T05:36:33.551Z,57.20
2018-03-24T05:39:01.779Z,56.30
2018-03-24T05:41:29.229Z,56.30
2018-03-24T05:43:56.702Z,56.50
2018-03-24T05:46:24.154Z,56.80
2018-03-24T05:48:51.623Z,56.60
2018-03-24T05:51:19.078Z,56.30
2018-03-24T05:53:47.306Z,55.80
2018-03-24T05:56:14.790Z,55.80
2018-03-24T05:58:42.248Z,55.60
2018-03-24T06:01:09.701Z,56.40
2018-03-24T06:03:37.173Z,56.30
2018-03-24T06:06:05.414Z,55.50
2018-03-24T06:08:32.877Z,55.50
2018-03-24T06:11:00.350Z,55.50
2018-03-24T06:13:29.322Z,55.40
2018-03-24T06:15:56.894Z,55.40
2018-03-24T06:18:25.133Z,55.00
2018-03-24T06:20:52.653Z,54.80
2018-03-24T06:23:20.890Z,54.80
2018-03-24T06:25:48.354Z,54.80
2018-03-24T06:28:16.582Z,54.80
2018-03-24T06:30:45.713Z,55.30
2018-03-24T06:33:13.220Z,55.30
2018-03-24T06:35:40.690Z,55.30
2018-03-24T06:38:08.177Z,55.60
2018-03-24T06:40:35.613Z,55.20
2018-03-24T06:43:03.069Z,54.30
2018-03-24T06:45:31.295Z,54.20
2018-03-24T06:47:58.761Z,54.20
2018-03-24T06:50:26.222Z,53.70
2018-03-24T06:52:53.706Z,53.60
2018-03-24T06:55:22.582Z,53.80
2018-03-24T06:57:51.410Z,53.70
2018-03-24T07:00:18.859Z,54.80
2018-03-24T07:02:46.327Z,53.60
2018-03-24T07:05:13.806Z,53.70
2018-03-24T07:07:41.294Z,53.60
2018-03-24T07:10:08.725Z,53.60
2018-03-24T07:12:36.190Z,53.10
2018-03-24T07:15:03.658Z,53.20
2018-03-24T07:17:31.130Z,52.40
2018-03-24T07:19:58.596Z,52.60
2018-03-24T07:22:26.821Z,52.20
2018-03-24T07:24:55.046Z,51.60
2018-03-24T07:27:23.272Z,51.50
2018-03-24T07:29:50.755Z,51.40
2018-03-24T07:32:18.205Z,51.60
2018-03-24T07:34:46.468Z,51.30
2018-03-24T07:37:13.925Z,51.30
2018-03-24T07:39:41.394Z,50.60
2018-03-24T07:42:08.858Z,49.80
2018-03-24T07:44:36.330Z,50.50
2018-03-24T07:47:03.785Z,50.90
2018-03-24T07:49:32.350Z,50.40
2018-03-24T07:51:59.814Z,49.80
2018-03-24T07:54:27.289Z,48.80
2018-03-24T07:56:54.741Z,49.00
2018-03-24T07:59:22.211Z,49.20
2018-03-24T08:01:49.666Z,49.10
2018-03-24T08:04:17.182Z,48.30
2018-03-24T08:06:45.359Z,48.80
2018-03-24T08:09:12.831Z,48.70
2018-03-24T08:11:40.291Z,48.10
2018-03-24T08:14:07.762Z,48.20
2018-03-24T08:16:35.222Z,48.00
2018-03-24T08:19:03.457Z,48.50
2018-03-24T08:21:30.931Z,48.50
2018-03-24T08:23:58.397Z,48.00
2018-03-24T08:26:25.871Z,48.00
2018-03-24T08:28:54.086Z,46.70
2018-03-24T08:31:21.564Z,46.80
2018-03-24T08:33:49.056Z,46.80
2018-03-24T08:36:16.482Z,46.50
2018-03-24T08:38:43.937Z,46.20
2018-03-24T08:41:11.422Z,46.50
2018-03-24T08:43:44.644Z,45.90
2018-03-24T08:46:12.881Z,46.00
2018-03-24T08:48:40.341Z,45.90
2018-03-24T08:51:07.821Z,45.70
2018-03-24T08:53:35.290Z,45.50
2018-03-24T08:56:03.534Z,44.70
2018-03-24T08:58:31.002Z,44.60
2018-03-24T09:00:58.469Z,43.60
2018-03-24T09:03:25.957Z,42.20
2018-03-24T09:05:53.387Z,42.60
2018-03-24T09:08:20.841Z,42.60
2018-03-24T09:10:48.298Z,42.00
2018-03-24T09:13:15.759Z,41.50
2018-03-24T09:15:43.217Z,41.40
2018-03-24T09:18:11.441Z,39.60
2018-03-24T09:20:38.901Z,39.60
2018-03-24T09:23:06.361Z,39.40
2018-03-24T09:25:34.605Z,39.20
2018-03-24T09:28:02.137Z,39.20
2018-03-24T09:30:29.550Z,39.20
2018-03-24T09:32:57.017Z,39.00
2018-03-24T09:35:24.474Z,38.10
2018-03-24T09:37:51.940Z,38.00
2018-03-24T09:40:19.402Z,37.20
2018-03-24T09:42:46.882Z,37.70
2018-03-24T09:45:14.338Z,37.60
2018-03-24T09:47:41.797Z,37.10
2018-03-24T09:50:09.254Z,37.70
2018-03-24T09:52:38.221Z,37.00
2018-03-24T09:55:05.677Z,37.00
2018-03-24T09:57:33.217Z,36.90
2018-03-24T10:00:00.673Z,36.40
2018-03-24T10:02:28.132Z,36.50
2018-03-24T10:04:55.585Z,36.00
2018-03-24T10:07:23.044Z,35.60
2018-03-24T10:09:50.501Z,35.80
2018-03-24T10:12:17.977Z,36.10
2018-03-24T10:14:45.432Z,35.80
2018-03-24T10:17:12.901Z,35.00
2018-03-24T10:19:41.113Z,35.00
2018-03-24T10:22:21.310Z,35.10
2018-03-24T10:24:48.762Z,35.00
2018-03-24T10:27:16.233Z,35.20
2018-03-24T10:29:43.702Z,35.50
2018-03-24T10:32:11.169Z,35.20
2018-03-24T10:34:38.639Z,34.00
2018-03-24T10:37:06.093Z,33.00
2018-03-24T10:39:33.553Z,32.80
2018-03-24T10:42:01.012Z,33.10
2018-03-24T10:44:29.238Z,33.10
2018-03-24T10:46:56.722Z,33.10
2018-03-24T10:49:24.190Z,33.60
2018-03-24T10:51:51.665Z,33.20
2018-03-24T10:54:19.125Z,32.60
2018-03-24T10:56:47.359Z,32.30
2018-03-24T10:59:14.825Z,32.30
2018-03-24T11:01:42.281Z,31.80
2018-03-24T11:04:09.799Z,31.80
2018-03-24T11:06:38.002Z,32.90
2018-03-24T11:09:05.476Z,32.90
2018-03-24T11:11:32.934Z,32.50
2018-03-24T11:14:00.410Z,32.50
2018-03-24T11:16:28.635Z,32.80
2018-03-24T11:18:56.110Z,32.80
2018-03-24T11:21:23.577Z,33.10
2018-03-24T11:23:51.053Z,34.40
2018-03-24T11:26:18.501Z,34.50
2018-03-24T11:28:45.969Z,34.10
2018-03-24T11:31:13.425Z,33.70
2018-03-24T11:33:40.887Z,34.60
2018-03-24T11:36:08.342Z,34.40
2018-03-24T11:38:35.798Z,34.50
2018-03-24T11:41:03.257Z,34.60
2018-03-24T11:43:30.729Z,38.80
2018-03-24T11:45:58.973Z,35.60
2018-03-24T11:48:27.209Z,35.20
2018-03-24T11:50:54.672Z,35.00
2018-03-24T11:53:27.937Z,34.60
2018-03-24T11:55:56.158Z,34.30
2018-03-24T11:58:23.629Z,34.20
2018-03-24T12:00:51.845Z,34.10
2018-03-24T12:03:20.093Z,33.90
2018-03-24T12:05:47.554Z,33.90
2018-03-24T12:08:15.028Z,33.70
2018-03-24T12:10:42.544Z,33.60
2018-03-24T12:13:10.032Z,33.60
2018-03-24T12:15:37.490Z,33.60
2018-03-24T12:18:04.955Z,33.50
2018-03-24T12:20:33.194Z,33.50
2018-03-24T12:23:00.649Z,33.40
2018-03-24T12:25:28.134Z,33.60
2018-03-24T12:27:55.583Z,34.00
2018-03-24T12:30:23.049Z,34.20
2018-03-24T12:32:50.509Z,34.30
2018-03-24T12:35:18.003Z,34.50
2018-03-24T12:37:45.466Z,35.00
2018-03-24T12:40:13.692Z,35.20
2018-03-24T12:42:41.142Z,35.20
2018-03-24T12:45:08.601Z,35.50
2018-03-24T12:47:36.054Z,35.60
2018-03-24T12:50:03.525Z,35.90
2018-03-24T12:52:31.008Z,36.20
2018-03-24T12:54:59.250Z,36.10
2018-03-24T12:57:26.709Z,36.10
2018-03-24T12:59:54.161Z,36.10
2018-03-24T13:02:21.632Z,35.80
2018-03-24T13:04:49.083Z,36.10
2018-03-24T13:07:16.600Z,36.60
2018-03-24T13:09:44.058Z,37.10
2018-03-24T13:12:12.397Z,38.00
2018-03-24T13:14:39.870Z,38.00
2018-03-24T13:17:07.317Z,38.40
2018-03-24T13:19:34.778Z,38.70
2018-03-24T13:22:02.273Z,39.00
2018-03-24T13:24:29.735Z,39.20
2018-03-24T13:26:57.201Z,39.50
2018-03-24T13:29:24.645Z,39.60
2018-03-24T13:31:52.116Z,39.80
2018-03-24T13:34:19.583Z,40.10
2018-03-24T13:36:47.062Z,40.40
2018-03-24T13:39:14.527Z,40.40
2018-03-24T13:41:41.978Z,40.40
2018-03-24T13:44:09.437Z,40.60
2018-03-24T13:46:36.897Z,40.40
2018-03-24T13:49:04.347Z,40.40
2018-03-24T13:51:31.805Z,40.50
2018-03-24T13:53:59.266Z,40.40
2018-03-24T13:56:26.721Z,40.50
2018-03-24T13:58:54.177Z,40.60
2018-03-24T14:01:21.633Z,40.60
2018-03-24T14:03:49.854Z,40.70
2018-03-24T14:06:18.077Z,40.70
2018-03-24T14:08:45.537Z,40.60
2018-03-24T14:11:12.981Z,40.80
2018-03-24T14:13:40.437Z,40.70
2018-03-24T14:16:07.915Z,40.70
2018-03-24T14:18:35.369Z,40.90
2018-03-24T14:21:02.820Z,40.90
2018-03-24T14:23:30.281Z,40.90
2018-03-24T14:25:57.733Z,40.90
2018-03-24T14:28:25.197Z,41.00
2018-03-24T14:30:52.645Z,41.10
2018-03-24T14:33:20.117Z,41.20
2018-03-24T14:35:47.565Z,41.30
2018-03-24T14:38:15.790Z,41.40
2018-03-24T14:40:44.029Z,41.40
2018-03-24T14:43:11.489Z,41.40
2018-03-24T14:45:38.937Z,41.40
2018-03-24T14:48:06.399Z,41.50
2018-03-24T14:50:34.629Z,41.60
2018-03-24T14:53:03.037Z,41.60
2018-03-24T14:55:30.496Z,46.30
2018-03-24T14:57:57.980Z,42.10
2018-03-24T15:00:25.438Z,38.60
2018-03-24T15:02:52.901Z,37.60
2018-03-24T15:05:21.134Z,37.00
2018-03-24T15:07:48.601Z,37.00
2018-03-24T15:10:16.058Z,35.90
2018-03-24T15:12:43.509Z,35.80
2018-03-24T15:15:10.977Z,37.20
2018-03-24T15:17:38.445Z,36.50
2018-03-24T15:20:05.913Z,36.20
2018-03-24T15:22:33.377Z,36.70
2018-03-24T15:25:00.895Z,35.70
2018-03-24T15:27:29.077Z,36.90
2018-03-24T15:30:09.233Z,37.10
2018-03-24T15:32:48.465Z,37.10
2018-03-24T15:35:27.852Z,36.50
2018-03-24T15:37:55.316Z,36.80
2018-03-24T15:40:22.799Z,36.90
2018-03-24T15:42:51.172Z,37.60
2018-03-24T15:45:18.655Z,38.00
2018-03-24T15:47:46.113Z,37.70
2018-03-24T15:50:13.593Z,39.90
2018-03-24T15:52:41.045Z,38.20
2018-03-24T15:55:08.517Z,38.20
2018-03-24T15:57:35.974Z,37.90
2018-03-24T16:00:03.443Z,37.60
2018-03-24T16:02:31.677Z,38.20
2018-03-24T16:04:59.149Z,38.10
2018-03-24T16:07:26.606Z,37.70
2018-03-24T16:09:54.070Z,38.70
2018-03-24T16:12:21.522Z,38.60
2018-03-24T16:14:48.982Z,38.60
2018-03-24T16:17:16.438Z,38.50
2018-03-24T16:19:43.946Z,39.00
2018-03-24T16:22:12.162Z,39.90
2018-03-24T16:24:40.383Z,39.90
2018-03-24T16:27:07.904Z,39.90
2018-03-24T16:29:35.362Z,40.50
2018-03-24T16:32:02.849Z,44.50
2018-03-24T16:34:31.079Z,47.40
2018-03-24T16:36:58.557Z,47.30
2018-03-24T16:39:26.013Z,45.20
2018-03-24T16:41:53.490Z,45.40
2018-03-24T16:44:20.933Z,45.30
2018-03-24T16:46:48.397Z,46.20
2018-03-24T16:49:15.875Z,46.60
2018-03-24T16:51:44.096Z,50.20
2018-03-24T16:54:11.577Z,50.20
2018-03-24T16:56:39.737Z,51.20
2018-03-24T16:59:07.186Z,51.80
2018-03-24T17:01:34.646Z,52.80
2018-03-24T17:04:02.096Z,53.70
2018-03-24T17:06:29.558Z,54.30
2018-03-24T17:08:57.014Z,54.90
2018-03-24T17:11:24.474Z,55.40
2018-03-24T17:13:51.929Z,55.80
2018-03-24T17:16:19.393Z,56.10
2018-03-24T17:18:46.850Z,56.70
2018-03-24T17:21:14.334Z,57.40
2018-03-24T17:23:41.804Z,57.60
2018-03-24T17:26:09.266Z,58.20
2018-03-24T17:28:36.727Z,58.30
2018-03-24T17:31:04.945Z,59.00
2018-03-24T17:33:32.413Z,59.00
2018-03-24T17:35:59.861Z,59.10
2018-03-24T17:38:27.326Z,59.60
2018-03-24T17:40:54.785Z,60.00
2018-03-24T17:43:22.251Z,60.00
2018-03-24T17:45:49.706Z,60.80
2018-03-24T17:48:17.208Z,61.10
2018-03-24T17:50:45.385Z,61.40
2018-03-24T17:53:13.618Z,61.70
2018-03-24T17:55:41.126Z,61.70
2018-03-24T17:58:08.555Z,62.10
2018-03-24T18:00:36.035Z,62.40
2018-03-24T18:03:04.270Z,62.90
2018-03-24T18:05:31.724Z,62.80
2018-03-24T18:07:59.190Z,62.90
2018-03-24T18:10:26.643Z,63.00
2018-03-24T18:12:54.865Z,63.70
2018-03-24T18:15:22.313Z,63.60
2018-03-24T18:17:50.568Z,63.50
2018-03-24T18:20:18.041Z,63.60
2018-03-24T18:22:45.494Z,63.70
2018-03-24T18:25:12.986Z,63.80
2018-03-24T18:27:40.442Z,63.90
2018-03-24T18:30:07.955Z,64.10
2018-03-24T18:32:35.426Z,64.30
2018-03-24T18:35:02.880Z,64.40
2018-03-24T18:37:30.338Z,64.40
2018-03-24T18:39:57.793Z,64.40
2018-03-24T18:42:25.253Z,64.50
2018-03-24T18:44:52.710Z,64.70
2018-03-24T18:47:20.166Z,64.70
2018-03-24T18:49:47.629Z,64.80
2018-03-24T18:52:15.089Z,64.80
2018-03-24T18:54:42.537Z,64.80
2018-03-24T18:57:09.993Z,65.00
2018-03-24T18:59:37.445Z,65.00
2018-03-24T19:02:04.909Z,65.00
2018-03-24T19:04:32.366Z,65.00
2018-03-24T19:06:59.821Z,65.10
2018-03-24T19:09:27.290Z,65.10
2018-03-24T19:11:55.518Z,65.30
2018-03-24T19:14:22.981Z,65.20
2018-03-24T19:16:50.437Z,65.20
2018-03-24T19:19:17.906Z,65.10
2018-03-24T19:21:45.358Z,65.40
2018-03-24T19:24:12.833Z,65.40
2018-03-24T19:26:40.277Z,65.50
2018-03-24T19:29:07.770Z,65.40
2018-03-24T19:31:35.225Z,65.40
2018-03-24T19:34:02.694Z,65.70
2018-03-24T19:36:30.941Z,65.70
2018-03-24T19:38:58.591Z,65.70
2018-03-24T19:41:26.900Z,65.70
2018-03-24T19:43:54.334Z,65.70
2018-03-24T19:46:21.797Z,65.90
2018-03-24T19:48:49.257Z,66.00
2018-03-24T19:51:16.726Z,66.00
2018-03-24T19:53:44.181Z,65.90
2018-03-24T19:56:11.641Z,65.90
2018-03-24T19:58:39.149Z,66.10
2018-03-24T20:01:06.614Z,66.20
2018-03-24T20:03:34.073Z,66.10
2018-03-24T20:06:01.553Z,66.20
2018-03-24T20:08:29.018Z,66.40
2018-03-24T20:10:56.489Z,66.50
2018-03-24T20:13:24.712Z,66.60
2018-03-24T20:15:52.173Z,66.50
2018-03-24T20:18:19.630Z,66.70
2018-03-24T20:20:47.081Z,66.60
2018-03-24T20:23:14.549Z,66.80
2018-03-24T20:25:42.016Z,66.80
2018-03-24T20:28:09.513Z,66.80
2018-03-24T20:30:36.968Z,66.90
2018-03-24T20:33:04.435Z,67.00
2018-03-24T20:35:32.682Z,67.10
2018-03-24T20:38:00.901Z,67.00
2018-03-24T20:40:28.365Z,67.00
2018-03-24T20:42:56.741Z,67.00
2018-03-24T20:45:24.198Z,67.00
2018-03-24T20:47:52.426Z,67.20
2018-03-24T20:50:19.906Z,67.20
2018-03-24T20:52:48.129Z,67.30
2018-03-24T20:55:16.381Z,67.30
2018-03-24T20:57:43.837Z,67.30
2018-03-24T21:00:12.065Z,67.30
2018-03-24T21:02:39.522Z,67.30
2018-03-24T21:05:07.771Z,67.50
2018-03-24T21:07:35.234Z,67.50
2018-03-24T21:10:04.610Z,67.60
2018-03-24T21:12:32.077Z,67.70
2018-03-24T21:14:59.576Z,67.60
2018-03-24T21:17:27.058Z,67.50
2018-03-24T21:19:54.509Z,67.60
2018-03-24T21:22:21.994Z,67.60
2018-03-24T21:24:49.448Z,67.70
2018-03-24T21:27:17.677Z,67.70
2018-03-24T21:29:45.161Z,67.70
2018-03-24T21:32:12.633Z,67.90
2018-03-24T21:34:40.866Z,67.90
2018-03-24T21:37:08.328Z,67.90
2018-03-24T21:39:36.550Z,67.80
2018-03-24T21:42:04.728Z,67.80
2018-03-24T21:44:32.184Z,68.80
2018-03-24T21:47:00.465Z,46.10
2018-03-24T21:49:27.913Z,46.20
2018-03-24T21:51:56.144Z,58.20
2018-03-24T21:54:23.601Z,58.20
2018-03-24T21:56:51.081Z,57.20
2018-03-24T21:59:18.546Z,56.80
2018-03-24T22:01:46.005Z,57.20
2018-03-24T22:04:14.230Z,58.40
2018-03-24T22:06:41.695Z,58.30
2018-03-24T22:11:43.870Z,60.00
2018-03-24T22:14:11.429Z,60.00
2018-03-24T22:16:38.927Z,60.50
2018-03-24T22:19:07.141Z,61.80
2018-03-24T22:21:34.640Z,61.80
2018-03-24T22:24:02.133Z,62.40
2018-03-24T22:26:30.361Z,59.60
2018-03-24T22:28:57.829Z,59.50
2018-03-24T22:31:25.278Z,57.50
2018-03-24T22:33:52.761Z,56.50
2018-03-24T22:38:54.169Z,55.20
2018-03-24T22:41:21.626Z,55.00
2018-03-24T22:43:49.102Z,54.60
2018-03-24T22:46:16.562Z,54.40
2018-03-24T22:48:44.037Z,54.20
2018-03-24T22:51:11.498Z,53.80
2018-03-24T22:53:38.953Z,53.70
2018-03-24T22:56:06.413Z,53.40
2018-03-24T22:58:33.870Z,53.90
2018-03-24T23:01:01.332Z,53.20
2018-03-24T23:03:28.786Z,53.20
2018-03-24T23:05:56.253Z,53.20
2018-03-24T23:08:23.723Z,53.20
2018-03-24T23:10:51.169Z,53.10
2018-03-24T23:13:18.627Z,53.10
2018-03-24T23:15:46.081Z,52.90
2018-03-24T23:18:13.566Z,52.90
2018-03-24T23:20:41.800Z,53.00
2018-03-24T23:23:09.269Z,52.90
2018-03-24T23:25:36.738Z,53.00
2018-03-24T23:28:04.214Z,53.00
2018-03-24T23:30:32.442Z,53.00
2018-03-24T23:32:59.905Z,53.00
2018-03-24T23:35:27.378Z,53.20
2018-03-24T23:37:54.837Z,53.40
2018-03-24T23:40:22.290Z,53.50
2018-03-24T23:42:49.758Z,53.50
2018-03-24T23:45:17.217Z,53.50
2018-03-24T23:47:44.673Z,53.60
2018-03-24T23:50:12.131Z,53.50
2018-03-24T23:52:39.585Z,53.50
2018-03-24T23:55:07.045Z,53.40
2018-03-24T23:57:34.509Z,53.60
